Time,TemperatureF,DewpointF,PressureIn,WindDirection,WindDirectionDegrees,WindSpeedMPH,WindSpeedGustMPH,Humidity,HourlyPrecipIn,Conditions,Clouds,dailyrainin,SoftwareType,DateUTC
2013-04-06 00:01:00,51.0,38.0,0.00,North,355,1.0,3.0,61,0.00,,,0.01,weatherlink.com 1.10,2013-04-06 02:01:00,
2013-04-06 00:17:00,52.3,39.0,30.08,North,355,3.0,5.0,61,0.00,,,0.01,weatherlink.com 1.10,2013-04-06 02:17:00,
2013-04-06 00:32:00,50.9,39.0,0.00,North,355,1.0,4.0,63,0.00,,,0.01,weatherlink.com 1.10,2013-04-06 02:32:00,
2013-04-06 00:49:00,47.5,38.0,0.00,North,355,1.0,2.0,70,0.00,,,0.01,weatherlink.com 1.10,2013-04-06 02:49:00,
2013-04-06 01:04:00,46.0,38.0,0.00,North,355,0.0,3.0,74,0.00,,,0.01,weatherlink.com 1.10,2013-04-06 03:04:00,
2013-04-06 01:20:00,45.0,38.0,0.00,North,355,0.0,2.0,76,0.00,,,0.01,weatherlink.com 1.10,2013-04-06 03:20:00,
2013-04-06 01:35:00,43.4,38.0,30.09,North,355,2.0,3.0,80,0.00,,,0.01,weatherlink.com 1.10,2013-04-06 03:35:00,
2013-04-06 01:50:00,43.1,38.0,0.00,North,355,1.0,2.0,83,0.00,,,0.01,weatherlink.com 1.10,2013-04-06 03:50:00,
2013-04-06 02:05:00,42.6,37.0,0.00,North,355,0.0,1.0,82,0.00,,,0.00,weatherlink.com 1.10,2013-04-06 04:05:00,
2013-04-06 02:21:00,41.6,37.0,0.00,North,355,1.0,3.0,84,0.00,,,0.00,weatherlink.com 1.10,2013-04-06 04:21:00,
2013-04-06 02:37:00,41.4,37.0,0.00,North,355,0.0,4.0,85,0.00,,,0.00,weatherlink.com 1.10,2013-04-06 04:37:00,
2013-04-06 02:52:00,40.2,37.0,30.09,North,355,1.0,4.0,87,0.00,,,0.00,weatherlink.com 1.10,2013-04-06 04:52:00,
2013-04-06 03:07:00,39.5,36.0,30.09,North,355,0.0,0.0,86,0.00,,,0.00,weatherlink.com 1.10,2013-04-06 05:07:00,
2013-04-06 03:23:00,39.2,36.0,30.09,North,355,2.0,2.0,89,0.00,,,0.00,weatherlink.com 1.10,2013-04-06 05:23:00,
2013-04-06 03:54:00,38.5,36.0,30.10,North,5,0.0,3.0,89,0.00,,,0.00,weatherlink.com 1.10,2013-04-06 05:54:00,
2013-04-06 04:09:00,37.4,35.0,31.87,North,5,2.0,0.0,90,0.00,,,0.00,weatherlink.com 1.10,2013-04-06 06:09:00,
2013-04-06 04:25:00,37.0,35.0,30.11,North,360,1.0,2.0,91,0.00,,,0.00,weatherlink.com 1.10,2013-04-06 06:25:00,
2013-04-06 04:40:00,35.5,33.0,30.11,WNW,288,0.0,5.0,91,0.00,,,0.00,weatherlink.com 1.10,2013-04-06 06:40:00,
2013-04-06 04:56:00,37.1,35.0,30.10,WNW,288,0.0,3.0,93,0.00,,,0.00,weatherlink.com 1.10,2013-04-06 06:56:00,
2013-04-06 05:11:00,35.5,34.0,30.11,WNW,288,1.0,3.0,93,0.00,,,0.00,weatherlink.com 1.10,2013-04-06 07:11:00,
2013-04-06 05:27:00,35.6,34.0,30.11,WNW,288,2.0,3.0,93,0.00,,,0.00,weatherlink.com 1.10,2013-04-06 07:27:00,
2013-04-06 05:58:00,35.6,34.0,30.12,WNW,288,4.0,4.0,95,0.00,,,0.00,weatherlink.com 1.10,2013-04-06 07:58:00,
2013-04-06 06:13:00,36.0,34.0,30.12,WNW,291,0.0,2.0,94,0.00,,,0.00,weatherlink.com 1.10,2013-04-06 08:13:00,
2013-04-06 06:29:00,34.6,33.0,30.13,WNW,292,0.0,0.0,93,0.00,,,0.00,weatherlink.com 1.10,2013-04-06 08:29:00,
2013-04-06 06:44:00,34.2,33.0,30.13,WNW,288,3.0,3.0,94,0.00,,,0.00,weatherlink.com 1.10,2013-04-06 08:44:00,
2013-04-06 07:14:00,34.4,33.0,30.14,SW,218,4.0,4.0,94,0.00,,,0.00,weatherlink.com 1.10,2013-04-06 09:14:00,
2013-04-06 07:30:00,34.8,34.0,30.14,SW,217,0.0,3.0,95,0.00,,,0.00,weatherlink.com 1.10,2013-04-06 09:30:00,
2013-04-06 07:45:00,34.8,34.0,30.15,SW,217,3.0,3.0,95,0.00,,,0.00,weatherlink.com 1.10,2013-04-06 09:45:00,
2013-04-06 08:01:00,34.0,32.0,30.16,WSW,253,3.0,5.0,94,0.00,,,0.00,weatherlink.com 1.10,2013-04-06 10:01:00,
2013-04-06 08:17:00,34.0,33.0,30.16,West,279,0.0,3.0,95,0.00,,,0.00,weatherlink.com 1.10,2013-04-06 10:17:00,
2013-04-06 08:33:00,34.2,33.0,30.17,West,279,0.0,4.0,95,0.00,,,0.00,weatherlink.com 1.10,2013-04-06 10:33:00,
2013-04-06 08:47:00,33.6,32.0,30.18,West,279,0.0,1.0,95,0.00,,,0.00,weatherlink.com 1.10,2013-04-06 10:47:00,
2013-04-06 09:03:00,33.1,32.0,30.19,West,279,0.0,0.0,95,0.00,,,0.00,weatherlink.com 1.10,2013-04-06 11:03:00,
2013-04-06 09:20:00,32.5,31.0,30.20,West,279,0.0,3.0,95,0.00,,,0.00,weatherlink.com 1.10,2013-04-06 11:20:00,
2013-04-06 09:35:00,33.9,33.0,30.21,NW,309,0.0,3.0,96,0.00,,,0.00,weatherlink.com 1.10,2013-04-06 11:35:00,
2013-04-06 09:50:00,33.6,33.0,30.22,NW,309,0.0,4.0,96,0.00,,,0.00,weatherlink.com 1.10,2013-04-06 11:50:00,
2013-04-06 10:21:00,36.8,36.0,30.23,NW,309,2.0,4.0,97,0.00,,,0.00,weatherlink.com 1.10,2013-04-06 12:21:00,
2013-04-06 10:36:00,38.4,37.0,30.23,West,268,3.0,8.0,96,0.00,,,0.00,weatherlink.com 1.10,2013-04-06 12:36:00,
2013-04-06 10:52:00,40.4,39.0,30.23,WSW,256,6.0,7.0,94,0.00,,,0.00,weatherlink.com 1.10,2013-04-06 12:52:00,
2013-04-06 11:07:00,42.6,40.0,30.24,West,264,3.0,5.0,91,0.00,,,0.00,weatherlink.com 1.10,2013-04-06 13:07:00,
2013-04-06 11:23:00,45.0,41.0,30.24,West,268,4.0,6.0,87,0.00,,,0.00,weatherlink.com 1.10,2013-04-06 13:23:00,
2013-04-06 11:38:00,47.4,42.0,30.24,WSW,246,4.0,5.0,83,0.00,,,0.00,weatherlink.com 1.10,2013-04-06 13:38:00,
2013-04-06 12:09:00,53.0,43.0,30.25,WSW,244,2.0,4.0,68,0.00,,,0.00,weatherlink.com 1.10,2013-04-06 14:09:00,
2013-04-06 12:24:00,54.4,42.0,30.25,ESE,120,5.0,7.0,62,0.00,,,0.00,weatherlink.com 1.10,2013-04-06 14:24:00,
2013-04-06 12:40:00,55.2,38.0,30.26,East,101,6.0,11.0,53,0.00,,,0.00,weatherlink.com 1.10,2013-04-06 14:40:00,
2013-04-06 12:55:00,56.1,39.0,30.26,East,80,7.0,12.0,53,0.00,,,0.00,weatherlink.com 1.10,2013-04-06 14:55:00,
2013-04-06 13:11:00,56.6,39.0,30.26,ENE,64,3.0,12.0,52,0.00,,,0.00,weatherlink.com 1.10,2013-04-06 15:11:00,
2013-04-06 13:27:00,56.9,38.0,30.26,ENE,76,8.0,10.0,49,0.00,,,0.00,weatherlink.com 1.10,2013-04-06 15:27:00,
2013-04-06 13:42:00,57.9,37.0,30.26,ESE,106,4.0,9.0,46,0.00,,,0.00,weatherlink.com 1.10,2013-04-06 15:42:00,
2013-04-06 13:58:00,58.7,39.0,30.26,ESE,105,7.0,8.0,47,0.00,,,0.00,weatherlink.com 1.10,2013-04-06 15:58:00,
2013-04-06 14:13:00,59.0,38.0,30.26,ESE,102,4.0,11.0,45,0.00,,,0.00,weatherlink.com 1.10,2013-04-06 16:13:00,
2013-04-06 14:29:00,59.6,39.0,30.25,ESE,113,5.0,9.0,47,0.00,,,0.00,weatherlink.com 1.10,2013-04-06 16:29:00,
2013-04-06 14:44:00,60.1,39.0,30.25,SE,136,9.0,11.0,45,0.00,,,0.00,weatherlink.com 1.10,2013-04-06 16:44:00,
2013-04-06 14:59:00,61.0,41.0,30.25,ESE,117,3.0,6.0,47,0.00,,,0.00,weatherlink.com 1.10,2013-04-06 16:59:00,
2013-04-06 15:14:00,61.2,39.0,30.25,ESE,110,3.0,9.0,44,0.00,,,0.00,weatherlink.com 1.10,2013-04-06 17:14:00,
2013-04-06 15:30:00,61.7,40.0,30.24,East,89,3.0,9.0,44,0.00,,,0.00,weatherlink.com 1.10,2013-04-06 17:30:00,
2013-04-06 15:45:00,62.2,41.0,30.24,SSW,207,0.0,12.0,46,0.00,,,0.00,weatherlink.com 1.10,2013-04-06 17:45:00,
2013-04-06 16:17:00,63.2,40.0,30.23,ESE,103,4.0,8.0,43,0.00,,,0.00,weatherlink.com 1.10,2013-04-06 18:17:00,
2013-04-06 16:32:00,63.7,39.0,30.21,West,275,7.0,9.0,40,0.00,,,0.00,weatherlink.com 1.10,2013-04-06 18:32:00,
2013-04-06 16:47:00,63.8,40.0,30.21,East,96,5.0,13.0,41,0.00,,,0.00,weatherlink.com 1.10,2013-04-06 18:47:00,
2013-04-06 17:03:00,64.1,37.0,30.20,NE,50,6.0,11.0,37,0.00,,,0.00,weatherlink.com 1.10,2013-04-06 19:03:00,
2013-04-06 17:19:00,64.7,42.0,30.20,SSW,203,0.0,8.0,43,0.00,,,0.00,weatherlink.com 1.10,2013-04-06 19:19:00,
2013-04-06 17:34:00,64.9,41.0,30.19,ESE,121,3.0,11.0,41,0.00,,,0.00,weatherlink.com 1.10,2013-04-06 19:34:00,
2013-04-06 17:50:00,65.5,38.0,30.19,ENE,75,0.0,4.0,36,0.00,,,0.00,weatherlink.com 1.10,2013-04-06 19:50:00,
2013-04-06 18:05:00,65.3,38.0,30.18,East,83,5.0,8.0,36,0.00,,,0.00,weatherlink.com 1.10,2013-04-06 20:05:00,
2013-04-06 18:21:00,66.0,41.0,30.17,ESE,103,3.0,7.0,40,0.00,,,0.00,weatherlink.com 1.10,2013-04-06 20:21:00,
2013-04-06 18:36:00,65.8,39.0,30.17,ESE,109,5.0,11.0,37,0.00,,,0.00,weatherlink.com 1.10,2013-04-06 20:36:00,
2013-04-06 18:51:00,65.9,39.0,30.16,East,88,6.0,7.0,37,0.00,,,0.00,weatherlink.com 1.10,2013-04-06 20:51:00,
2013-04-06 19:07:00,65.2,40.0,30.16,SE,133,6.0,8.0,40,0.00,,,0.00,weatherlink.com 1.10,2013-04-06 21:07:00,
2013-04-06 19:22:00,66.2,38.0,30.16,ESE,102,7.0,9.0,36,0.00,,,0.00,weatherlink.com 1.10,2013-04-06 21:22:00,
2013-04-06 19:38:00,65.2,39.0,30.16,SE,125,5.0,9.0,38,0.00,,,0.00,weatherlink.com 1.10,2013-04-06 21:38:00,
2013-04-06 19:53:00,64.6,38.0,30.16,SE,125,0.0,8.0,38,0.00,,,0.00,weatherlink.com 1.10,2013-04-06 21:53:00,
2013-04-06 20:08:00,64.8,39.0,0.00,SSE,159,3.0,8.0,38,0.00,,,0.00,weatherlink.com 1.10,2013-04-06 22:08:00,
2013-04-06 20:24:00,64.7,40.0,30.17,SSE,153,2.0,4.0,40,0.00,,,0.00,weatherlink.com 1.10,2013-04-06 22:24:00,
2013-04-06 20:39:00,65.0,38.0,30.17,SSE,159,3.0,6.0,37,0.00,,,0.00,weatherlink.com 1.10,2013-04-06 22:39:00,
2013-04-06 20:54:00,64.2,39.0,30.17,ESE,117,3.0,8.0,40,0.00,,,0.00,weatherlink.com 1.10,2013-04-06 22:54:00,
2013-04-06 21:25:00,61.9,40.0,30.17,SSE,163,0.0,3.0,44,0.00,,,0.00,weatherlink.com 1.10,2013-04-06 23:25:00,
2013-04-06 21:56:00,60.1,39.0,30.18,SSE,163,0.0,0.0,45,0.00,,,0.00,weatherlink.com 1.10,2013-04-06 23:56:00,
2013-04-06 22:12:00,59.2,38.0,30.18,SSE,163,0.0,1.0,46,0.00,,,0.00,weatherlink.com 1.10,2013-04-07 00:12:00,
2013-04-06 22:28:00,58.2,39.0,29.27,SSE,163,0.0,2.0,48,0.00,,,0.00,weatherlink.com 1.10,2013-04-07 00:28:00,
2013-04-06 22:43:00,58.1,39.0,30.19,SSE,163,0.0,0.0,49,0.00,,,0.00,weatherlink.com 1.10,2013-04-07 00:43:00,
2013-04-06 22:58:00,56.5,40.0,30.19,SSE,163,0.0,0.0,54,0.00,,,0.00,weatherlink.com 1.10,2013-04-07 00:58:00,
2013-04-06 23:14:00,54.8,39.0,24.54,SSE,163,0.0,0.0,56,0.00,,,0.00,weatherlink.com 1.10,2013-04-07 01:14:00,
2013-04-06 23:30:00,53.7,39.0,24.54,SSE,163,0.0,0.0,58,0.00,,,0.00,weatherlink.com 1.10,2013-04-07 01:30:00,
2013-04-06 23:45:00,52.7,38.0,24.54,SSE,163,0.0,0.0,58,0.00,,,0.00,weatherlink.com 1.10,2013-04-07 01:45:00,